Time;durP1;ratioP1;P1;durP2;ratioP2;P2;SDS_P1;SDS_P2;PMS_P1;PMS_P2;Temp;Humidity;BMP_temperature;BMP_pressure;BME280_temperature;BME280_humidity;BME280_pressure;Samples;Min_cycle;Max_cycle;Signal;HPM_P1;HPM_P2
2022/06/03 00:02:30;;;;;;;5.15;3.30;;;12.20;99.90;;;;;;5120712;27;20135;-66
2022/06/03 00:05:20;;;;;;;5.38;3.55;;;12.10;99.90;;;;;;5127672;27;20524;-66
2022/06/03 00:08:13;;;;;;;7.60;3.17;;;12.10;99.90;;;;;;5128082;27;20039;-66
2022/06/03 00:11:09;;;;;;;5.25;3.20;;;12.00;99.90;;;;;;5130871;27;20047;-66
2022/06/03 00:14:10;;;;;;;5.25;3.17;;;12.00;99.90;;;;;;5127842;27;20031;-66
2022/06/03 00:17:00;;;;;;;5.80;3.65;;;12.00;99.90;;;;;;5127443;27;20368;-66
2022/06/03 00:19:47;;;;;;;7.65;3.58;;;11.80;99.90;;;;;;5126346;28;20049;-66
2022/06/03 00:22:21;;;;;;;4.75;3.28;;;11.80;99.90;;;;;;5127346;28;20054;-66
2022/06/03 00:25:05;;;;;;;5.43;3.30;;;11.80;99.90;;;;;;5126751;27;20035;-67
2022/06/03 00:27:57;;;;;;;6.10;3.60;;;11.80;99.90;;;;;;5112989;27;20043;-68
2022/06/03 00:31:10;;;;;;;7.85;3.58;;;11.80;99.90;;;;;;5101247;27;20043;-66
2022/06/03 00:34:08;;;;;;;5.57;3.75;;;11.80;99.90;;;;;;5108093;27;20120;-66
2022/06/03 00:36:40;;;;;;;7.35;4.30;;;11.70;99.90;;;;;;5111202;27;20063;-67
2022/06/03 00:39:22;;;;;;;7.90;4.13;;;11.70;99.90;;;;;;5113132;27;20122;-66
2022/06/03 00:42:17;;;;;;;8.65;4.97;;;11.70;99.90;;;;;;5133258;27;20118;-66
2022/06/03 00:44:48;;;;;;;6.95;4.57;;;11.60;99.90;;;;;;5114554;27;20420;-65
2022/06/03 00:47:42;;;;;;;7.13;4.70;;;11.60;99.90;;;;;;5133467;27;20039;-66
2022/06/03 00:50:25;;;;;;;7.35;4.53;;;11.60;99.90;;;;;;5129887;27;20039;-66
2022/06/03 00:53:05;;;;;;;6.47;4.60;;;11.50;99.90;;;;;;5130669;27;20464;-66
2022/06/03 00:55:41;;;;;;;6.60;4.97;;;11.50;99.90;;;;;;5096082;27;20140;-67
2022/06/03 00:58:31;;;;;;;7.65;5.93;;;11.60;99.90;;;;;;5130078;27;20043;-66
2022/06/03 01:01:08;;;;;;;6.88;6.18;;;11.50;99.90;;;;;;5134135;27;20038;-66
2022/06/03 01:03:54;;;;;;;9.45;6.80;;;11.40;99.90;;;;;;5131208;27;20026;-67
2022/06/03 01:06:34;;;;;;;8.15;6.22;;;11.40;99.90;;;;;;5131076;27;20395;-66
2022/06/03 01:09:21;;;;;;;9.27;6.10;;;11.40;99.90;;;;;;5132178;27;20087;-66
2022/06/03 01:12:08;;;;;;;7.93;5.75;;;11.30;99.90;;;;;;5131404;27;20043;-67
2022/06/03 01:15:06;;;;;;;7.60;5.63;;;11.30;99.90;;;;;;5113843;27;20031;-66
2022/06/03 01:17:50;;;;;;;8.50;5.15;;;11.20;99.90;;;;;;5111159;27;20083;-67
2022/06/03 01:20:34;;;;;;;6.88;5.32;;;11.20;99.90;;;;;;5131169;27;20122;-66
2022/06/03 01:23:38;;;;;;;5.88;5.00;;;11.20;99.90;;;;;;5113991;27;20162;-68
2022/06/03 01:26:26;;;;;;;7.88;4.95;;;11.20;99.90;;;;;;5062338;27;20043;-66
2022/06/03 01:29:17;;;;;;;9.45;4.75;;;11.20;99.90;;;;;;5130274;27;20035;-67
2022/06/03 01:32:10;;;;;;;7.43;5.22;;;11.10;99.90;;;;;;5134529;27;20042;-66
2022/06/03 01:34:50;;;;;;;7.20;4.63;;;11.10;99.90;;;;;;5131818;27;20603;-66
2022/06/03 01:37:56;;;;;;;7.10;4.35;;;11.10;99.90;;;;;;5111970;27;20074;-67
2022/06/03 01:40:51;;;;;;;7.30;4.35;;;11.10;99.90;;;;;;5106690;27;20082;-66
2022/06/03 01:43:38;;;;;;;7.28;4.22;;;11.00;99.90;;;;;;5121042;27;20078;-66
2022/06/03 01:46:26;;;;;;;8.80;4.22;;;11.00;99.90;;;;;;5131696;27;20356;-66
2022/06/03 01:49:30;;;;;;;9.27;4.32;;;10.90;99.90;;;;;;5130623;27;20122;-68
2022/06/03 01:52:25;;;;;;;5.35;4.05;;;10.90;99.90;;;;;;5131264;27;20031;-66
2022/06/03 01:55:24;;;;;;;8.35;4.22;;;10.90;99.90;;;;;;5112748;27;20110;-66
2022/06/03 01:58:08;;;;;;;7.60;4.90;;;10.80;99.90;;;;;;5111964;27;20094;-66
2022/06/03 02:00:47;;;;;;;5.70;4.20;;;10.80;99.90;;;;;;5114277;27;20039;-66
2022/06/03 02:03:49;;;;;;;6.07;4.13;;;10.80;99.90;;;;;;5132342;27;20108;-66
2022/06/03 02:06:50;;;;;;;8.98;4.70;;;10.80;99.90;;;;;;5129564;27;20054;-66
2022/06/03 02:09:41;;;;;;;6.60;4.38;;;10.80;99.90;;;;;;5130898;27;20106;-66
2022/06/03 02:12:10;;;;;;;5.38;3.90;;;10.70;99.90;;;;;;5129001;27;20036;-66
2022/06/03 02:15:06;;;;;;;7.80;3.88;;;10.80;99.90;;;;;;5132204;27;20035;-67
2022/06/03 02:17:51;;;;;;;6.05;4.45;;;10.70;99.90;;;;;;5129132;27;20100;-66
2022/06/03 02:20:26;;;;;;;7.13;4.80;;;10.80;99.90;;;;;;5130187;27;20031;-66
2022/06/03 02:22:51;;;;;;;7.68;4.30;;;10.70;99.90;;;;;;5129346;27;20039;-66
2022/06/03 02:25:54;;;;;;;5.70;4.22;;;10.70;99.90;;;;;;5130973;27;20039;-66
2022/06/03 02:28:48;;;;;;;9.75;5.18;;;10.70;99.90;;;;;;5130645;27;20386;-65
2022/06/03 02:31:31;;;;;;;6.45;4.63;;;10.70;99.90;;;;;;5114212;27;20047;-66
2022/06/03 02:34:04;;;;;;;6.45;4.35;;;10.80;99.90;;;;;;5130025;27;20123;-66
2022/06/03 02:36:42;;;;;;;6.95;4.78;;;10.70;99.90;;;;;;5128185;27;20368;-66
2022/06/03 02:39:30;;;;;;;8.13;5.20;;;10.70;99.90;;;;;;5110512;27;20046;-67
2022/06/03 02:42:20;;;;;;;8.02;4.78;;;10.70;99.90;;;;;;5114345;27;20131;-66
2022/06/03 02:45:04;;;;;;;6.93;5.03;;;10.60;99.90;;;;;;5128139;27;20039;-66
2022/06/03 02:47:48;;;;;;;8.32;5.57;;;10.60;99.90;;;;;;5110149;27;20043;-66
2022/06/03 02:50:38;;;;;;;9.82;5.75;;;10.60;99.90;;;;;;5128773;27;20062;-66
2022/06/03 02:53:10;;;;;;;7.28;5.82;;;10.60;99.90;;;;;;5130455;27;20444;-66
2022/06/03 02:55:57;;;;;;;8.77;6.45;;;10.50;99.90;;;;;;5130606;27;20035;-66
2022/06/03 02:58:25;;;;;;;10.35;7.25;;;10.40;99.90;;;;;;5129806;27;20042;-66
2022/06/03 03:01:10;;;;;;;8.20;6.30;;;10.30;99.90;;;;;;5131576;27;20460;-67
2022/06/03 03:03:44;;;;;;;8.95;7.22;;;10.30;99.90;;;;;;5128742;27;20403;-66
2022/06/03 03:06:36;;;;;;;;;;;10.30;99.90;;;;;;5128213;27;20047;-66
2022/06/03 03:09:14;;;;;;;8.70;6.30;;;10.30;99.90;;;;;;5129782;27;19915;-66
2022/06/03 03:11:58;;;;;;;10.52;6.03;;;10.20;99.90;;;;;;5132604;27;20049;-66
2022/06/03 03:14:49;;;;;;;9.27;6.10;;;10.20;99.90;;;;;;5112623;27;20043;-67
2022/06/03 03:17:26;;;;;;;9.32;5.82;;;10.30;99.90;;;;;;5128571;27;20051;-66
2022/06/03 03:19:52;;;;;;;9.35;6.38;;;10.40;99.90;;;;;;5129476;27;20130;-66
2022/06/03 03:22:18;;;;;;;9.65;6.00;;;10.30;99.90;;;;;;5132408;27;20118;-66
2022/06/03 03:25:08;;;;;;;8.07;5.90;;;10.40;99.90;;;;;;5129947;27;20031;-66
2022/06/03 03:28:01;;;;;;;8.68;5.82;;;10.30;99.90;;;;;;5128183;27;20046;-65
2022/06/03 03:30:38;;;;;;;7.70;5.90;;;10.20;99.90;;;;;;5111941;27;20075;-66
2022/06/03 03:33:25;;;;;;;8.02;5.80;;;10.20;99.90;;;;;;5111685;27;20387;-67
2022/06/03 03:36:33;;;;;;;6.57;5.65;;;10.20;99.90;;;;;;5128775;27;20038;-65
2022/06/03 03:39:36;;;;;;;8.20;5.72;;;10.20;99.90;;;;;;5129216;27;20418;-65
2022/06/03 03:42:24;;;;;;;8.60;5.93;;;10.20;99.90;;;;;;5131916;27;20042;-66
2022/06/03 03:45:04;;;;;;;8.05;5.68;;;10.20;99.90;;;;;;5109421;27;20038;-66
2022/06/03 03:47:54;;;;;;;12.02;6.07;;;10.30;99.90;;;;;;5109355;27;20050;-65
2022/06/03 03:50:47;;;;;;;8.43;5.60;;;10.30;99.90;;;;;;5128595;27;20100;-66
2022/06/03 03:53:43;;;;;;;9.18;6.20;;;10.40;99.90;;;;;;5128766;27;20087;-66
2022/06/03 03:56:44;;;;;;;9.10;6.15;;;10.30;99.90;;;;;;5126943;27;20050;-66
2022/06/03 03:59:22;;;;;;;9.50;6.20;;;10.40;99.90;;;;;;5127247;27;20038;-66
2022/06/03 04:02:16;;;;;;;9.68;6.38;;;10.40;99.90;;;;;;5111301;27;20354;-67
2022/06/03 04:05:16;;;;;;;8.65;6.22;;;10.40;99.90;;;;;;5110727;27;20103;-66
2022/06/03 04:08:04;;;;;;;7.18;5.63;;;10.40;99.90;;;;;;5110169;27;20050;-66
2022/06/03 04:10:44;;;;;;;7.97;6.10;;;10.60;99.90;;;;;;5112133;27;20041;-66
2022/06/03 04:14:00;;;;;;;6.97;6.05;;;10.50;99.90;;;;;;5128254;27;20043;-66
2022/06/03 04:17:09;;;;;;;9.73;6.53;;;10.60;99.90;;;;;;5083127;28;20044;-66
2022/06/03 04:19:56;;;;;;;8.48;5.82;;;10.70;99.90;;;;;;5084697;28;20048;-65
2022/06/03 04:22:59;;;;;;;9.68;6.03;;;10.70;99.90;;;;;;5085674;28;20101;-65
2022/06/03 04:25:49;;;;;;;8.43;5.85;;;10.70;99.90;;;;;;5086224;28;20049;-65
2022/06/03 04:28:48;;;;;;;10.90;6.10;;;10.70;99.90;;;;;;5068119;28;20043;-66
2022/06/03 04:31:28;;;;;;;10.13;6.03;;;10.80;99.90;;;;;;5086758;28;20083;-65
2022/06/03 04:34:26;;;;;;;7.95;5.55;;;10.80;99.90;;;;;;5067931;28;20539;-66
2022/06/03 04:37:20;;;;;;;7.85;5.57;;;10.90;99.90;;;;;;5083540;28;20153;-66
2022/06/03 04:40:16;;;;;;;10.55;5.88;;;10.90;99.90;;;;;;5086401;28;20066;-65
2022/06/03 04:43:19;;;;;;;8.52;5.72;;;11.00;99.90;;;;;;5086154;28;20047;-67
2022/06/03 04:46:06;;;;;;;10.40;6.13;;;11.20;99.90;;;;;;5085382;28;20526;-66
2022/06/03 04:48:41;;;;;;;9.00;5.78;;;11.30;99.90;;;;;;5126993;28;20474;-66
2022/06/03 04:51:15;;;;;;;;;;;11.40;99.90;;;;;;5111370;28;20081;-66
2022/06/03 04:54:17;;;;;;;10.00;5.30;;;11.90;99.90;;;;;;5125703;28;20310;-65
2022/06/03 04:57:20;;;;;;;7.68;5.68;;;13.10;99.90;;;;;;5127893;27;20121;-66
2022/06/03 05:00:16;;;;;;;7.45;4.95;;;14.40;99.90;;;;;;5128456;27;20046;-66
2022/06/03 05:03:01;;;;;;;9.45;5.00;;;15.40;99.90;;;;;;5126382;28;20055;-67
2022/06/03 05:05:55;;;;;;;8.77;4.82;;;16.20;99.90;;;;;;5111709;28;20043;-66
2022/06/03 05:08:43;;;;;;;9.50;5.73;;;16.40;99.90;;;;;;5094357;28;20040;-66
2022/06/03 05:11:18;;;;;;;9.27;4.40;;;17.40;99.90;;;;;;5101558;28;20050;-66
2022/06/03 05:14:10;;;;;;;8.35;4.70;;;18.00;99.90;;;;;;5123860;27;20031;-66
2022/06/03 05:16:58;;;;;;;6.53;4.30;;;17.90;99.90;;;;;;5118798;27;20126;-66
2022/06/03 05:19:30;;;;;;;6.65;4.03;;;18.40;99.90;;;;;;5083864;27;20051;-67
2022/06/03 05:22:14;;;;;;;6.68;4.25;;;18.80;99.90;;;;;;5131871;27;20095;-66
2022/06/03 05:24:58;;;;;;;7.65;4.50;;;18.90;99.90;;;;;;5117028;27;20042;-67
2022/06/03 05:27:27;;;;;;;6.95;4.00;;;19.00;99.90;;;;;;5131822;27;20056;-66
2022/06/03 05:30:20;;;;;;;7.82;4.15;;;19.10;99.90;;;;;;5133448;27;20035;-66
2022/06/03 05:33:05;;;;;;;4.93;3.72;;;18.90;99.90;;;;;;5111369;27;20042;-67
2022/06/03 05:36:12;;;;;;;5.00;3.58;;;19.50;99.90;;;;;;5114273;27;20122;-67
2022/06/03 05:38:44;;;;;;;10.65;4.38;;;19.30;99.90;;;;;;5113383;27;20046;-65
2022/06/03 05:44:20;;;;;;;6.50;3.60;;;19.40;99.90;;;;;;5115996;27;20043;-67
2022/06/03 05:47:13;;;;;;;7.13;3.38;;;19.30;99.90;;;;;;5113454;27;20498;-66
2022/06/03 05:50:07;;;;;;;6.55;3.53;;;19.70;99.90;;;;;;5112806;27;20043;-66
2022/06/03 05:53:17;;;;;;;5.57;3.90;;;20.20;99.40;;;;;;5130088;27;20397;-66
2022/06/03 05:56:07;;;;;;;10.20;3.67;;;20.20;99.00;;;;;;5117206;27;20067;-66
2022/06/03 05:58:57;;;;;;;10.82;3.35;;;20.20;99.00;;;;;;5113856;27;20035;-65
2022/06/03 06:01:36;;;;;;;6.07;3.40;;;20.30;98.80;;;;;;5122708;27;20725;-66
2022/06/03 06:04:14;;;;;;;6.55;3.72;;;20.40;98.80;;;;;;5125600;27;20474;-66
2022/06/03 06:06:47;;;;;;;8.23;3.95;;;20.50;98.60;;;;;;5131066;27;20118;-66
2022/06/03 06:09:40;;;;;;;8.27;4.00;;;20.20;99.30;;;;;;5130320;27;20049;-66
2022/06/03 06:12:29;;;;;;;4.22;2.97;;;20.80;98.10;;;;;;5128519;27;20031;-68
2022/06/03 06:15:27;;;;;;;4.82;3.42;;;20.80;98.00;;;;;;5129818;27;20066;-67
2022/06/03 06:17:58;;;;;;;6.15;2.92;;;20.70;98.50;;;;;;5112474;27;20051;-66
2022/06/03 06:20:24;;;;;;;9.38;3.80;;;20.50;98.30;;;;;;5112612;27;20050;-66
2022/06/03 06:23:02;;;;;;;4.47;3.03;;;20.60;98.50;;;;;;5112768;27;20054;-66
2022/06/03 06:25:37;;;;;;;5.28;2.67;;;20.60;98.30;;;;;;5107449;27;20491;-67
2022/06/03 06:28:24;;;;;;;4.80;3.05;;;20.60;98.40;;;;;;5113039;27;20043;-66
2022/06/03 06:30:56;;;;;;;5.10;2.90;;;20.60;98.20;;;;;;5107496;27;20528;-67
2022/06/03 06:34:00;;;;;;;5.43;2.95;;;20.60;98.70;;;;;;5115887;27;20472;-67
2022/06/03 06:36:31;;;;;;;7.60;3.45;;;20.90;98.20;;;;;;5010719;28;20486;-66
2022/06/03 06:39:07;;;;;;;6.40;2.97;;;21.30;97.80;;;;;;4997827;28;20046;-66
2022/06/03 06:41:40;;;;;;;11.88;3.63;;;21.30;97.70;;;;;;5063861;27;20273;-68
2022/06/03 06:44:39;;;;;;;6.57;3.42;;;20.90;98.30;;;;;;5110580;27;20035;-66
2022/06/03 06:47:17;;;;;;;5.85;3.05;;;21.10;97.80;;;;;;5111742;27;20046;-66
2022/06/03 06:50:20;;;;;;;6.50;3.28;;;21.10;98.10;;;;;;5110950;27;20053;-66
2022/06/03 06:53:34;;;;;;;9.68;3.20;;;21.50;97.30;;;;;;5108630;27;20496;-71
2022/06/03 06:56:30;;;;;;;7.40;2.90;;;21.40;97.50;;;;;;5075835;27;20068;-70
2022/06/03 06:59:30;;;;;;;7.32;2.95;;;20.70;98.50;;;;;;5094290;27;20467;-66
2022/06/03 07:02:07;;;;;;;5.57;2.80;;;20.10;99.70;;;;;;5074074;27;20353;-66
2022/06/03 07:04:42;;;;;;;4.05;3.17;;;19.70;99.90;;;;;;5120269;27;20347;-66
2022/06/03 07:07:07;;;;;;;4.82;2.88;;;19.40;99.90;;;;;;5092198;27;20054;-66
2022/06/03 07:09:37;;;;;;;4.63;2.90;;;19.10;99.90;;;;;;5112522;27;20039;-66
2022/06/03 07:12:11;;;;;;;6.13;3.55;;;19.10;99.90;;;;;;5120686;27;20115;-66
2022/06/03 07:14:59;;;;;;;5.80;3.05;;;19.20;99.90;;;;;;5130965;27;20042;-66
2022/06/03 07:20:40;;;;;;;6.30;3.00;;;19.20;99.90;;;;;;5093862;28;20493;-67
2022/06/03 07:23:19;;;;;;;5.72;3.08;;;19.20;99.90;;;;;;5120496;27;20366;-66
2022/06/03 07:25:56;;;;;;;6.95;3.13;;;19.50;99.90;;;;;;5108333;27;20372;-66
2022/06/03 07:28:34;;;;;;;4.18;3.10;;;19.50;99.90;;;;;;5108751;27;20031;-66
2022/06/03 07:31:16;;;;;;;4.95;2.67;;;19.70;99.90;;;;;;5124846;27;20421;-66
2022/06/03 07:34:01;;;;;;;7.00;2.97;;;19.80;99.90;;;;;;5126184;27;20035;-66
2022/06/03 07:36:30;;;;;;;7.22;3.10;;;19.80;99.90;;;;;;5120586;27;20366;-68
2022/06/03 07:38:57;;;;;;;5.53;2.60;;;20.10;99.90;;;;;;5127423;27;20041;-66
2022/06/03 07:41:42;;;;;;;4.47;2.67;;;20.30;99.90;;;;;;5124723;27;20373;-66
2022/06/03 07:44:16;;;;;;;5.80;3.00;;;20.40;99.70;;;;;;5106660;27;20074;-66
2022/06/03 07:46:49;;;;;;;3.53;2.72;;;20.20;99.50;;;;;;5105807;27;20088;-66
2022/06/03 07:49:16;;;;;;;6.45;3.08;;;19.90;99.90;;;;;;5126903;27;20070;-67
2022/06/03 07:51:47;;;;;;;6.05;3.15;;;19.80;99.90;;;;;;5124227;27;20127;-66
2022/06/03 07:54:37;;;;;;;5.57;3.00;;;19.90;99.90;;;;;;5125428;27;20091;-66
2022/06/03 07:57:07;;;;;;;6.57;3.42;;;19.90;99.90;;;;;;5128076;27;20084;-67
2022/06/03 07:59:35;;;;;;;7.95;3.17;;;20.10;99.90;;;;;;5127801;27;20035;-67
2022/06/03 08:02:27;;;;;;;6.43;3.10;;;20.20;99.90;;;;;;5106034;27;20050;-68
2022/06/03 08:05:17;;;;;;;6.70;3.25;;;20.30;99.40;;;;;;5124196;27;20177;-66
2022/06/03 08:10:58;;;;;;;7.10;3.63;;;20.10;99.70;;;;;;5122939;27;20055;-68
2022/06/03 08:13:44;;;;;;;5.68;3.33;;;20.20;99.30;;;;;;5107902;28;20051;-67
2022/06/03 08:16:33;;;;;;;6.10;3.13;;;20.20;99.50;;;;;;5121610;27;20058;-65
2022/06/03 08:19:21;;;;;;;6.30;3.20;;;20.40;99.30;;;;;;5126275;27;20035;-65
2022/06/03 08:21:58;;;;;;;6.05;3.53;;;20.60;99.20;;;;;;5123624;27;20432;-67
2022/06/03 08:24:30;;;;;;;9.77;3.53;;;20.60;99.00;;;;;;5135821;27;20043;-66
2022/06/03 08:27:05;;;;;;;6.40;3.60;;;20.50;99.30;;;;;;5140592;27;20057;-67
2022/06/03 08:29:46;;;;;;;6.00;3.10;;;20.40;99.30;;;;;;5138822;27;20045;-67
2022/06/03 08:32:16;;;;;;;6.97;3.50;;;20.50;99.80;;;;;;5139043;27;20038;-66
2022/06/03 08:34:50;;;;;;;4.97;3.03;;;20.50;99.40;;;;;;5143228;27;20364;-66
2022/06/03 08:37:26;;;;;;;4.25;3.20;;;20.60;99.20;;;;;;5142296;27;20027;-66
2022/06/03 08:39:58;;;;;;;5.30;3.67;;;20.50;99.10;;;;;;5140063;27;20042;-66
2022/06/03 08:42:29;;;;;;;7.88;3.33;;;20.60;98.70;;;;;;5140332;27;20058;-66
2022/06/03 08:44:58;;;;;;;8.02;3.10;;;20.50;99.20;;;;;;5142021;27;20056;-66
2022/06/03 08:47:32;;;;;;;8.45;3.28;;;20.60;99.00;;;;;;5124889;27;20336;-67
2022/06/03 08:50:29;;;;;;;6.70;3.28;;;20.80;98.30;;;;;;5147084;27;20035;-67
2022/06/03 08:53:07;;;;;;;4.50;3.00;;;20.60;98.70;;;;;;5141644;27;20043;-66
2022/06/03 08:56:03;;;;;;;6.75;3.38;;;20.60;98.90;;;;;;5144504;27;20038;-68
2022/06/03 08:58:50;;;;;;;5.28;2.95;;;20.60;98.70;;;;;;5142188;27;20031;-66
2022/06/03 09:01:25;;;;;;;6.45;3.13;;;20.80;98.10;;;;;;5120538;27;20046;-66
2022/06/03 09:04:12;;;;;;;5.72;2.80;;;20.70;98.80;;;;;;5142859;27;20338;-67
2022/06/03 09:06:52;;;;;;;4.63;2.97;;;20.60;98.50;;;;;;5142975;27;20038;-67
2022/06/03 09:09:27;;;;;;;9.05;3.47;;;20.60;99.00;;;;;;5143196;27;20459;-67
2022/06/03 09:12:00;;;;;;;5.53;3.13;;;20.70;98.40;;;;;;5141539;27;20126;-67
2022/06/03 09:14:27;;;;;;;4.63;3.20;;;20.80;98.70;;;;;;5147197;27;20035;-68
2022/06/03 09:16:57;;;;;;;4.35;2.97;;;20.80;98.60;;;;;;5145353;27;20127;-66
2022/06/03 09:19:40;;;;;;;5.88;3.33;;;20.90;98.50;;;;;;5144627;27;20046;-67
2022/06/03 09:22:26;;;;;;;4.75;3.03;;;21.10;98.50;;;;;;5142420;27;20039;-67
2022/06/03 09:24:56;;;;;;;4.75;3.05;;;21.20;97.90;;;;;;5120924;27;20043;-66
2022/06/03 09:27:27;;;;;;;4.72;2.97;;;21.40;98.10;;;;;;5143927;27;20741;-67
2022/06/03 09:29:55;;;;;;;5.18;2.97;;;21.50;98.20;;;;;;5145668;27;20475;-67
2022/06/03 09:32:24;;;;;;;4.53;2.92;;;21.50;97.90;;;;;;5144166;27;20051;-66
2022/06/03 09:34:54;;;;;;;5.40;2.70;;;21.50;97.80;;;;;;5145331;27;20610;-67
2022/06/03 09:37:29;;;;;;;6.80;2.80;;;21.60;97.60;;;;;;5144268;27;20049;-67
2022/06/03 09:39:55;;;;;;;8.70;3.20;;;21.70;97.50;;;;;;5142174;27;20034;-67
2022/06/03 09:42:22;;;;;;;3.83;2.55;;;21.80;97.30;;;;;;5144017;27;20046;-67
2022/06/03 09:44:50;;;;;;;4.28;2.78;;;21.80;96.90;;;;;;5142338;27;20091;-67
2022/06/03 09:47:19;;;;;;;6.22;3.13;;;21.70;96.90;;;;;;5144363;27;20313;-67
2022/06/03 09:49:47;;;;;;;4.82;2.63;;;21.50;97.30;;;;;;5146702;27;20035;-66
2022/06/03 09:52:17;;;;;;;5.95;2.90;;;21.50;97.80;;;;;;5143321;27;20475;-66
2022/06/03 09:54:44;;;;;;;4.47;2.70;;;21.60;97.80;;;;;;5144154;27;20035;-66
2022/06/03 09:57:34;;;;;;;3.85;2.58;;;21.80;97.50;;;;;;5145548;27;20042;-66
2022/06/03 10:00:11;;;;;;;5.10;2.88;;;22.00;97.10;;;;;;5142169;27;20386;-67
2022/06/03 10:02:37;;;;;;;4.50;2.50;;;22.10;97.10;;;;;;5142601;27;20118;-65
2022/06/03 10:05:05;;;;;;;5.75;3.00;;;22.00;96.90;;;;;;5145998;27;20164;-67
2022/06/03 10:07:31;;;;;;;5.10;2.65;;;22.00;96.70;;;;;;5137309;27;20104;-67
2022/06/03 10:12:49;;;;;;;4.25;2.72;;;22.10;97.10;;;;;;5139712;27;20058;-66
2022/06/03 10:15:44;;;;;;;4.43;2.50;;;22.20;95.70;;;;;;5122178;27;20080;-67
2022/06/03 10:18:42;;;;;;;5.47;2.90;;;21.90;96.60;;;;;;5141926;27;20047;-67
2022/06/03 10:21:08;;;;;;;6.43;2.58;;;22.00;97.00;;;;;;5134739;27;20134;-67
2022/06/03 10:23:45;;;;;;;5.35;2.30;;;22.20;96.30;;;;;;5131858;27;20122;-67
2022/06/03 10:26:36;;;;;;;5.13;2.65;;;22.20;96.60;;;;;;5141745;27;20142;-67
2022/06/03 10:29:09;;;;;;;6.53;3.03;;;22.30;96.50;;;;;;5144545;27;20046;-67
2022/06/03 10:31:35;;;;;;;4.78;2.47;;;22.50;95.60;;;;;;5139933;27;20042;-67
2022/06/03 10:34:04;;;;;;;4.15;2.35;;;22.50;96.10;;;;;;5142083;27;20035;-66
2022/06/03 10:36:43;;;;;;;4.43;2.40;;;22.40;95.90;;;;;;5120646;27;20114;-68
2022/06/03 10:39:14;;;;;;;4.40;2.53;;;22.40;96.20;;;;;;5115995;27;20187;-68
2022/06/03 10:41:43;;;;;;;4.95;2.75;;;22.60;95.90;;;;;;5141482;27;20031;-66
2022/06/03 10:44:42;;;;;;;6.53;2.33;;;22.60;95.20;;;;;;5103017;27;20503;-65
2022/06/03 10:47:19;;;;;;;4.22;2.40;;;22.60;95.30;;;;;;5137497;27;20121;-65
2022/06/03 10:49:56;;;;;;;4.28;2.75;;;22.80;95.30;;;;;;5142456;27;20030;-65
2022/06/03 11:01:07;;;;;;;3.67;2.22;;;22.90;94.70;;;;;;5142458;27;20030;-67
2022/06/03 11:03:35;;;;;;;4.00;2.35;;;23.00;94.70;;;;;;5111783;27;20035;-67
2022/06/03 11:06:08;;;;;;;4.63;2.42;;;23.20;94.60;;;;;;5138520;27;20046;-67
2022/06/03 11:08:59;;;;;;;7.05;1.95;;;23.00;94.60;;;;;;5140879;27;20033;-66
2022/06/03 11:11:39;;;;;;;5.70;2.60;;;23.10;94.10;;;;;;5119603;27;20056;-67
2022/06/03 11:14:39;;;;;;;5.10;2.22;;;22.90;93.40;;;;;;5145007;27;20030;-67
2022/06/03 11:17:16;;;;;;;3.10;2.33;;;22.80;94.00;;;;;;5113632;27;20051;-66
2022/06/03 11:19:45;;;;;;;2.70;2.15;;;22.90;93.80;;;;;;5127760;27;20047;-66
2022/06/03 11:22:28;;;;;;;3.03;1.90;;;23.10;93.80;;;;;;5126814;27;20035;-67
2022/06/03 11:25:21;;;;;;;3.85;2.10;;;23.20;94.10;;;;;;5105757;27;20062;-66
2022/06/03 11:28:05;;;;;;;3.45;2.10;;;23.40;94.10;;;;;;5104339;27;20061;-63
2022/06/03 11:30:33;;;;;;;3.70;2.13;;;23.40;94.10;;;;;;5121398;27;20072;-62
2022/06/03 11:33:07;;;;;;;3.30;2.08;;;23.30;94.30;;;;;;5124473;27;20479;-62
2022/06/03 11:36:09;;;;;;;6.20;2.45;;;23.20;94.60;;;;;;5126148;27;20042;-65
2022/06/03 11:38:40;;;;;;;3.92;2.15;;;23.20;94.70;;;;;;5078298;27;20039;-66
2022/06/03 11:41:16;;;;;;;3.67;2.25;;;23.20;93.90;;;;;;5126045;27;20027;-66
2022/06/03 11:44:03;;;;;;;5.82;2.40;;;23.40;93.50;;;;;;5126160;27;20038;-67
2022/06/03 11:46:36;;;;;;;3.65;2.40;;;23.30;93.60;;;;;;5122153;27;20126;-64
2022/06/03 17:35:25;;;;;;;3.22;1.33;;;20.90;95.70;;;;;;5042038;28;20118;-61
2022/06/03 17:38:03;;;;;;;3.25;1.20;;;20.80;96.10;;;;;;5022591;28;20038;-61
2022/06/03 17:41:07;;;;;;;2.85;1.20;;;20.70;96.40;;;;;;5023220;28;20120;-62
2022/06/03 17:43:46;;;;;;;4.90;1.65;;;20.70;96.40;;;;;;5022942;28;20059;-63
2022/06/03 17:46:12;;;;;;;3.47;1.33;;;20.80;96.80;;;;;;4995791;28;20446;-63
2022/06/03 17:49:06;;;;;;;4.10;1.40;;;20.90;96.60;;;;;;5009454;28;20037;-61
2022/06/03 17:55:19;;;;;;;6.85;1.70;;;20.80;96.60;;;;;;5022324;28;20160;-61
2022/06/03 17:57:54;;;;;;;3.08;1.40;;;20.70;96.60;;;;;;5037965;28;20041;-62
2022/06/03 18:00:23;;;;;;;2.80;1.60;;;20.60;96.80;;;;;;5042199;28;20062;-61
2022/06/03 18:03:07;;;;;;;4.82;1.30;;;20.60;96.80;;;;;;5029685;28;20423;-61
2022/06/03 18:06:11;;;;;;;5.95;1.40;;;20.80;96.50;;;;;;5023065;28;20362;-63
2022/06/03 18:08:59;;;;;;;2.42;1.60;;;20.80;96.70;;;;;;5023673;28;20037;-63
2022/06/03 18:11:45;;;;;;;4.00;1.75;;;21.20;96.60;;;;;;5033065;28;20045;-62
2022/06/03 18:14:19;;;;;;;2.97;1.40;;;21.40;96.40;;;;;;5022007;28;20038;-62
2022/06/03 18:17:07;;;;;;;3.33;1.50;;;21.50;96.30;;;;;;5024659;28;20051;-62
2022/06/03 18:19:37;;;;;;;2.58;1.50;;;21.40;96.40;;;;;;5023215;28;20041;-62
2022/06/03 18:22:21;;;;;;;2.85;1.42;;;21.40;96.50;;;;;;5021975;28;20359;-62
2022/06/03 18:25:08;;;;;;;2.33;1.65;;;21.10;96.60;;;;;;5021350;28;20038;-63
2022/06/03 18:27:43;;;;;;;3.08;1.33;;;20.90;97.00;;;;;;5022648;28;20038;-64
2022/06/03 18:30:20;;;;;;;3.85;1.58;;;20.80;97.10;;;;;;5010511;28;20463;-64
2022/06/03 18:33:06;;;;;;;1.67;1.30;;;20.80;97.40;;;;;;5033082;28;20029;-63
2022/06/03 18:35:51;;;;;;;4.78;1.67;;;20.70;97.40;;;;;;5022349;28;20045;-63
2022/06/03 18:38:28;;;;;;;3.40;1.60;;;20.50;97.80;;;;;;5022573;28;20042;-66
2022/06/03 18:41:24;;;;;;;7.40;2.17;;;20.30;98.30;;;;;;5025638;28;20038;-64
2022/06/03 18:44:22;;;;;;;4.57;1.77;;;20.10;98.90;;;;;;5007630;28;20053;-64
2022/06/03 18:47:29;;;;;;;3.22;1.60;;;19.80;99.10;;;;;;5008192;28;20112;-65
2022/06/03 18:50:08;;;;;;;3.95;2.13;;;19.70;99.40;;;;;;5011423;28;20048;-64
2022/06/03 18:52:39;;;;;;;3.42;1.70;;;19.70;99.80;;;;;;5016939;28;20466;-63
2022/06/03 18:55:31;;;;;;;2.30;1.73;;;19.60;99.90;;;;;;5010472;28;20042;-64
2022/06/03 18:58:12;;;;;;;5.95;1.75;;;19.40;99.90;;;;;;5010033;28;20362;-64
2022/06/03 19:00:58;;;;;;;3.17;1.80;;;19.20;99.90;;;;;;5010794;28;20034;-65
2022/06/03 19:03:48;;;;;;;5.28;2.00;;;19.10;99.90;;;;;;5010588;28;20046;-64
2022/06/03 19:06:16;;;;;;;4.43;2.33;;;19.00;99.90;;;;;;5008319;28;20079;-64
2022/06/03 19:09:01;;;;;;;4.18;1.92;;;18.90;99.90;;;;;;5010548;28;20105;-64
2022/06/03 19:11:57;;;;;;;3.92;1.88;;;18.80;99.90;;;;;;5019425;28;20042;-64
2022/06/03 19:15:00;;;;;;;4.68;2.22;;;18.60;99.90;;;;;;5035992;28;20038;-65
2022/06/03 19:17:44;;;;;;;4.03;1.95;;;18.50;99.90;;;;;;5036721;28;20034;-64
2022/06/03 19:20:49;;;;;;;5.43;2.13;;;18.40;99.90;;;;;;5008969;28;20042;-65
2022/06/03 19:23:25;;;;;;;3.63;1.73;;;18.20;99.90;;;;;;5009898;28;20068;-64
2022/06/03 19:25:51;;;;;;;4.68;2.58;;;18.30;99.90;;;;;;5009017;28;20069;-65
2022/06/03 19:28:37;;;;;;;4.90;2.10;;;18.50;99.90;;;;;;5010062;28;20088;-65
2022/06/03 19:31:15;;;;;;;2.90;2.03;;;18.60;99.90;;;;;;4994167;28;20406;-64
2022/06/03 19:33:58;;;;;;;6.45;2.10;;;18.40;99.90;;;;;;5034402;28;20050;-63
2022/06/03 19:36:49;;;;;;;4.78;2.85;;;18.20;99.90;;;;;;5020472;28;20112;-64
2022/06/03 19:39:21;;;;;;;6.00;2.30;;;18.00;99.90;;;;;;5009021;28;20117;-64
2022/06/03 19:41:50;;;;;;;6.05;2.65;;;17.90;99.90;;;;;;5014270;28;20038;-64
2022/06/03 19:44:51;;;;;;;6.40;2.75;;;17.70;99.90;;;;;;5010230;28;20122;-64
2022/06/03 19:47:29;;;;;;;4.50;2.50;;;17.60;99.90;;;;;;5046598;28;20040;-65
2022/06/03 19:53:09;;;;;;;4.85;2.80;;;17.30;99.90;;;;;;5010896;28;20046;-66
2022/06/03 19:55:46;;;;;;;5.47;2.50;;;17.20;99.90;;;;;;5009122;28;20455;-64
2022/06/03 19:58:24;;;;;;;6.47;3.15;;;17.10;99.90;;;;;;5005349;28;20061;-64
2022/06/03 20:00:56;;;;;;;5.32;3.10;;;17.10;99.90;;;;;;5010499;28;20077;-64
2022/06/03 20:03:24;;;;;;;5.85;3.30;;;17.10;99.90;;;;;;5026623;28;20083;-65
2022/06/03 20:06:05;;;;;;;6.00;3.30;;;16.90;99.90;;;;;;5033298;28;20048;-66
2022/06/03 20:08:51;;;;;;;5.47;2.78;;;17.00;99.90;;;;;;5008159;28;20478;-65
2022/06/03 20:14:14;;;;;;;5.22;2.78;;;16.80;99.90;;;;;;5009633;28;20419;-64
2022/06/03 20:16:52;;;;;;;5.75;3.25;;;16.80;99.90;;;;;;5015397;28;20041;-64
2022/06/03 20:19:22;;;;;;;7.30;2.90;;;16.70;99.90;;;;;;5008780;28;20367;-65
2022/06/03 20:21:51;;;;;;;9.27;3.00;;;16.60;99.90;;;;;;5011585;28;20029;-65
2022/06/03 20:24:29;;;;;;;5.28;2.90;;;16.60;99.90;;;;;;5009331;28;20053;-65
2022/06/03 20:26:58;;;;;;;9.32;2.90;;;16.50;99.90;;;;;;5007881;28;20347;-64